Time;durP1;ratioP1;P1;durP2;ratioP2;P2;SDS_P1;SDS_P2;PMS_P1;PMS_P2;Temp;Humidity;BMP_temperature;BMP_pressure;BME280_temperature;BME280_humidity;BME280_pressure;Samples;Min_cycle;Max_cycle;Signal;HPM_P1;HPM_P2
2023/01/24 00:00:06;;;;;;;24.45;9.48;;;;;;;9.22;59.69;101026.13;5268236;27;20367;-90
2023/01/24 00:02:32;;;;;;;18.33;9.45;;;;;;;9.03;59.68;101022.81;5268109;27;20429;-92
2023/01/24 00:05:00;;;;;;;19.55;9.88;;;;;;;9.15;59.69;101021.84;5268128;27;20057;-93
2023/01/24 00:07:26;;;;;;;19.48;8.93;;;;;;;9.06;59.68;101022.78;5268340;27;20056;-92
2023/01/24 00:09:51;;;;;;;20.70;9.90;;;;;;;8.92;59.67;101022.84;5269054;27;20376;-91
2023/01/24 00:12:17;;;;;;;18.33;9.77;;;;;;;8.87;59.67;101026.34;5268977;27;20075;-92
2023/01/24 00:14:42;;;;;;;19.70;9.82;;;;;;;8.79;59.67;101030.72;5284911;27;20158;-89
2023/01/24 00:17:08;;;;;;;18.58;9.00;;;;;;;8.74;59.67;101025.50;5267715;27;20071;-89
2023/01/24 00:19:33;;;;;;;18.75;9.60;;;;;;;8.67;59.67;101028.16;5267724;27;20447;-89
2023/01/24 00:22:03;;;;;;;17.33;9.30;;;;;;;8.84;59.67;101028.94;5268157;27;20084;-88
2023/01/24 00:24:29;;;;;;;21.83;9.52;;;;;;;8.79;59.66;101023.78;5268148;27;20025;-90
2023/01/24 00:26:55;;;;;;;15.32;9.00;;;;;;;8.67;59.66;101030.75;5268590;27;20048;-92
2023/01/24 00:29:20;;;;;;;14.57;8.38;;;;;;;8.40;59.65;101034.28;5268655;27;20388;-92
2023/01/24 00:31:46;;;;;;;21.15;9.52;;;;;;;8.48;59.65;101038.59;5268137;27;20057;-92
2023/01/24 00:34:11;;;;;;;18.10;8.43;;;;;;;8.48;59.65;101036.00;5268002;27;20098;-91
2023/01/24 00:36:37;;;;;;;16.40;8.85;;;;;;;8.57;59.66;101032.53;5268417;27;20108;-92
2023/01/24 00:39:04;;;;;;;18.37;9.35;;;;;;;8.71;59.66;101035.06;5267994;27;20361;-91
2023/01/24 00:41:30;;;;;;;16.85;7.85;;;;;;;8.76;59.67;101034.19;5268400;27;20077;-91
2023/01/24 00:43:55;;;;;;;13.25;7.50;;;;;;;8.82;59.67;101039.34;5268051;27;20456;-90
2023/01/24 00:46:21;;;;;;;12.32;6.80;;;;;;;8.91;59.68;101034.09;5267856;27;20092;-90
2023/01/24 00:48:46;;;;;;;14.48;7.07;;;;;;;8.85;59.67;101044.53;5286123;27;20064;-90
2023/01/24 00:51:12;;;;;;;11.45;6.75;;;;;;;8.77;59.67;101042.84;5268030;27;20057;-90
2023/01/24 00:53:40;;;;;;;15.45;6.50;;;;;;;8.72;59.66;101036.78;5267850;27;20096;-90
2023/01/24 00:56:06;;;;;;;13.95;7.35;;;;;;;8.80;59.66;101037.63;5268032;27;20227;-90
2023/01/24 00:58:33;;;;;;;13.10;7.12;;;;;;;8.64;59.66;101042.00;5268129;27;20061;-90
2023/01/24 01:01:00;;;;;;;13.70;7.18;;;;;;;8.63;59.66;101050.66;5268178;27;20065;-91
2023/01/24 01:03:25;;;;;;;11.80;7.03;;;;;;;8.67;59.66;101049.78;5268012;27;20062;-90
2023/01/24 01:05:58;;;;;;;14.35;7.32;;;;;;;8.71;59.66;101048.03;5267521;27;20097;-90
2023/01/24 01:08:24;;;;;;;14.85;7.35;;;;;;;8.61;59.66;101055.00;5267751;27;20751;-90
2023/01/24 01:10:50;;;;;;;17.05;7.47;;;;;;;8.63;59.66;101053.25;5268278;27;20106;-90
2023/01/24 01:13:15;;;;;;;15.80;7.72;;;;;;;8.69;59.66;101052.38;5267979;27;20530;-90
2023/01/24 01:15:41;;;;;;;14.00;6.43;;;;;;;8.60;59.66;101061.91;5267958;27;20081;-91
2023/01/24 01:18:06;;;;;;;15.32;7.35;;;;;;;8.56;59.65;101057.63;5268109;27;20121;-90
2023/01/24 01:20:32;;;;;;;11.90;6.55;;;;;;;8.53;59.66;101067.16;5286268;27;20071;-90
2023/01/24 01:22:57;;;;;;;14.48;7.30;;;;;;;8.61;59.66;101065.38;5268299;27;20360;-91
2023/01/24 01:25:23;;;;;;;12.77;6.35;;;;;;;8.48;59.65;101067.13;5267938;27;20096;-91
2023/01/24 01:27:48;;;;;;;12.98;7.12;;;;;;;8.51;59.66;101068.84;5268441;27;20195;-90
2023/01/24 01:30:13;;;;;;;17.05;7.32;;;;;;;8.47;59.66;101067.13;5268055;27;20147;-90
2023/01/24 01:32:39;;;;;;;16.75;7.22;;;;;;;8.35;59.64;101065.44;5268149;27;20052;-91
2023/01/24 01:35:05;;;;;;;13.88;7.07;;;;;;;8.46;59.65;101068.00;5286170;27;20063;-91
2023/01/24 01:37:30;;;;;;;12.20;6.68;;;;;;;8.44;59.64;101061.97;5267948;27;20113;-90
2023/01/24 01:39:55;;;;;;;11.45;6.57;;;;;;;8.46;59.65;101065.41;5267991;27;20057;-91
2023/01/24 01:42:21;;;;;;;12.80;6.75;;;;;;;8.49;59.65;101073.19;5268032;27;20100;-91
2023/01/24 01:44:49;;;;;;;13.20;7.30;;;;;;;8.50;59.65;101072.31;5268298;27;20409;-91
2023/01/24 01:47:36;;;;;;;13.50;6.45;;;;;;;8.50;59.65;101078.38;5268511;27;20049;-92
2023/01/24 01:50:07;;;;;;;13.93;7.32;;;;;;;8.51;59.66;101072.31;5267779;27;20078;-91
2023/01/24 01:52:36;;;;;;;11.35;6.15;;;;;;;8.57;59.66;101072.31;5267978;27;20427;-91
2023/01/24 01:55:05;;;;;;;9.85;6.40;;;;;;;8.56;59.65;101080.97;5268242;27;20037;-91
2023/01/24 01:57:30;;;;;;;13.95;6.93;;;;;;;8.68;59.67;101085.25;5267950;27;20092;-91
2023/01/24 02:00:14;;;;;;;10.02;5.85;;;;;;;8.57;59.65;101081.84;5266861;27;20319;-91
2023/01/24 02:02:41;;;;;;;14.40;6.70;;;;;;;8.59;59.66;101086.16;5267112;27;20066;-92
2023/01/24 02:05:07;;;;;;;13.98;6.62;;;;;;;8.49;59.65;101086.16;5267977;27;20145;-92
2023/01/24 02:07:59;;;;;;;11.90;5.43;;;;;;;8.42;59.64;101084.44;5267446;27;20077;-89
2023/01/24 02:11:37;;;;;;;13.20;6.25;;;;;;;8.38;59.65;101087.94;5285671;27;20078;-90
2023/01/24 02:13:10;;;;;;;10.77;5.65;;;;;;;8.41;59.64;101081.00;5291917;27;20052;-91
2023/01/24 02:18:20;;;;;;;8.60;4.75;;;;;;;8.37;59.64;101096.56;5291725;27;20072;-90
2023/01/24 02:20:45;;;;;;;10.00;5.25;;;;;;;8.29;59.63;101096.56;5267596;27;20108;-90
2023/01/24 02:23:42;;;;;;;12.18;5.47;;;;;;;8.38;59.65;101100.91;5267652;27;20421;-91
2023/01/24 02:26:15;;;;;;;9.30;4.72;;;;;;;8.28;59.64;101098.28;5285691;27;20048;-91
2023/01/24 02:29:03;;;;;;;11.98;5.93;;;;;;;8.28;59.63;101103.47;5268083;27;20502;-90
2023/01/24 02:31:29;;;;;;;10.02;5.35;;;;;;;8.16;59.63;101095.69;5287863;27;20082;-90
2023/01/24 02:33:54;;;;;;;10.95;5.15;;;;;;;8.12;59.63;101095.69;5268097;27;20074;-91
2023/01/24 02:36:32;;;;;;;11.90;5.68;;;;;;;8.04;59.62;101100.88;5267939;27;20052;-92
2023/01/24 02:39:01;;;;;;;11.70;5.30;;;;;;;8.12;59.63;101093.97;5267980;27;20057;-91
2023/01/24 02:41:29;;;;;;;10.07;5.03;;;;;;;8.15;59.63;101096.56;5285450;27;20060;-91
2023/01/24 02:43:56;;;;;;;10.45;5.70;;;;;;;8.23;59.64;101099.13;5267744;27;20052;-91
2023/01/24 02:46:21;;;;;;;13.18;5.70;;;;;;;8.06;59.62;101096.56;5267215;27;20053;-88
2023/01/24 02:48:50;;;;;;;10.27;5.50;;;;;;;8.04;59.63;101094.81;5266991;27;20125;-89
2023/01/24 02:53:59;;;;;;;9.88;5.03;;;;;;;8.12;59.63;101104.34;5290997;27;20428;-89
2023/01/24 02:59:09;;;;;;;8.43;4.60;;;;;;;8.08;59.63;101105.22;5306537;27;20106;-89
2023/01/24 03:01:34;;;;;;;13.88;5.60;;;;;;;7.95;59.62;101106.94;5267266;27;20056;-90
2023/01/24 03:04:00;;;;;;;10.70;5.53;;;;;;;8.12;59.63;101113.84;5268046;27;20105;-90
2023/01/24 03:06:25;;;;;;;10.63;5.25;;;;;;;8.09;59.63;101112.13;5267916;27;20346;-90
2023/01/24 03:08:51;;;;;;;11.32;5.18;;;;;;;8.07;59.62;101107.81;5268108;27;20120;-89
2023/01/24 03:11:16;;;;;;;14.75;5.60;;;;;;;8.09;59.63;101112.13;5268207;27;20163;-89
2023/01/24 03:35:34;;;;;;;9.85;5.45;;;;;;;8.18;59.63;101124.22;5292073;27;20105;-92
2023/01/24 03:40:44;;;;;;;11.57;6.00;;;;;;;8.17;59.63;101130.28;5291927;27;20435;-92
2023/01/24 03:43:10;;;;;;;10.57;5.55;;;;;;;7.96;59.62;101128.53;5267703;27;20061;-92
2023/01/24 03:45:36;;;;;;;10.75;5.68;;;;;;;8.12;59.63;101129.41;5266753;27;20096;-94
2023/01/24 03:48:03;;;;;;;11.77;6.00;;;;;;;7.96;59.62;101134.59;5268303;27;20546;-93
2023/01/24 03:53:22;;;;;;;13.13;6.32;;;;;;;8.11;59.62;101130.28;5292879;27;20084;-95
2023/01/24 03:55:51;;;;;;;10.18;5.43;;;;;;;8.09;59.64;101129.41;5268226;27;20068;-95
2023/01/24 03:58:16;;;;;;;15.90;6.87;;;;;;;8.07;59.62;101136.34;5268515;27;20098;-95
2023/01/24 04:00:42;;;;;;;11.30;6.03;;;;;;;7.97;59.62;101130.25;5268151;27;20115;-94
2023/01/24 04:03:07;;;;;;;11.23;6.18;;;;;;;7.87;59.62;101129.41;5268330;27;20076;-94
2023/01/24 04:05:34;;;;;;;11.10;6.12;;;;;;;8.02;59.63;101125.94;5268029;27;20103;-94
2023/01/24 04:07:59;;;;;;;13.30;6.60;;;;;;;7.91;59.61;101130.28;5268560;27;20057;-93
2023/01/24 04:10:25;;;;;;;10.07;5.65;;;;;;;7.91;59.61;101131.13;5268304;27;20064;-92
2023/01/24 04:12:50;;;;;;;11.25;6.22;;;;;;;7.85;59.62;101130.28;5268217;27;20170;-91
2023/01/24 04:15:17;;;;;;;15.27;6.35;;;;;;;7.88;59.62;101132.84;5267965;27;20113;-91
2023/01/24 04:17:43;;;;;;;11.10;5.97;;;;;;;7.78;59.61;101134.56;5268422;27;20017;-90
2023/01/24 04:20:09;;;;;;;11.12;5.40;;;;;;;7.94;59.62;101132.84;5268487;27;20075;-90
2023/01/24 04:22:34;;;;;;;10.80;6.25;;;;;;;8.12;59.63;101138.06;5268424;27;20075;-89
2023/01/24 04:25:00;;;;;;;14.13;6.32;;;;;;;7.93;59.62;101131.13;5268127;27;20093;-91
2023/01/24 04:27:25;;;;;;;13.05;6.18;;;;;;;7.78;59.61;101134.56;5286195;27;20062;-90
2023/01/24 04:29:51;;;;;;;12.10;6.22;;;;;;;7.91;59.61;101131.13;5268260;27;20119;-91
2023/01/24 04:32:16;;;;;;;11.18;6.03;;;;;;;7.74;59.61;101130.22;5268307;27;20116;-90
2023/01/24 04:34:41;;;;;;;16.20;7.32;;;;;;;7.85;59.62;101125.94;5268233;27;20143;-89
2023/01/24 04:37:07;;;;;;;16.10;6.45;;;;;;;7.68;59.60;101133.69;5267999;27;20100;-89
2023/01/24 04:39:32;;;;;;;11.88;6.28;;;;;;;7.94;59.62;101130.25;5267980;27;20116;-90
2023/01/24 04:41:58;;;;;;;11.38;6.43;;;;;;;7.80;59.61;101130.25;5285514;27;20064;-90
2023/01/24 04:44:23;;;;;;;10.93;6.07;;;;;;;7.87;59.62;101141.50;5267779;27;20073;-90
2023/01/24 04:46:48;;;;;;;12.98;6.95;;;;;;;7.82;59.61;101141.50;5267906;27;20066;-90
2023/01/24 04:49:14;;;;;;;11.63;6.40;;;;;;;7.66;59.60;101137.16;5268345;27;20469;-90
2023/01/24 04:51:42;;;;;;;10.00;5.95;;;;;;;7.52;59.59;101147.47;5268237;27;20076;-90
2023/01/24 04:54:11;;;;;;;14.90;7.05;;;;;;;7.77;59.61;101148.38;5268958;27;20113;-90
2023/01/24 04:56:37;;;;;;;14.77;6.43;;;;;;;7.69;59.62;101143.19;5268507;27;20081;-91
2023/01/24 04:59:02;;;;;;;11.23;6.30;;;;;;;7.48;59.60;101145.72;5267874;27;20084;-91
2023/01/24 05:01:28;;;;;;;13.90;6.05;;;;;;;7.53;59.60;101146.59;5267846;27;20448;-91
2023/01/24 05:03:58;;;;;;;11.60;6.07;;;;;;;7.50;59.60;101154.38;5267854;27;20056;-90
2023/01/24 05:06:27;;;;;;;13.45;7.22;;;;;;;7.48;59.60;101158.69;5269521;27;20102;-89
2023/01/24 05:08:53;;;;;;;14.80;6.25;;;;;;;7.48;59.60;101152.63;5268374;27;20061;-89
2023/01/24 05:11:19;;;;;;;12.07;6.35;;;;;;;7.52;59.60;101156.97;5267917;27;20061;-93
2023/01/24 05:13:44;;;;;;;12.45;6.55;;;;;;;7.45;59.59;101161.25;5285952;27;20089;-90
2023/01/24 05:16:09;;;;;;;12.37;6.65;;;;;;;7.64;59.60;101157.88;5286378;27;20104;-90
2023/01/24 05:18:35;;;;;;;11.52;6.57;;;;;;;7.60;59.60;101155.28;5267500;27;20119;-90
2023/01/24 05:21:07;;;;;;;11.55;6.32;;;;;;;7.60;59.60;101160.47;5267985;27;20075;-89
2023/01/24 05:23:33;;;;;;;11.30;6.07;;;;;;;7.57;59.60;101158.72;5268258;27;20052;-86
2023/01/24 05:25:59;;;;;;;15.65;6.95;;;;;;;7.48;59.60;101152.63;5267306;27;20618;-88
2023/01/24 05:28:24;;;;;;;15.90;6.90;;;;;;;7.43;59.59;101163.00;5267078;27;20826;-89
2023/01/24 05:30:50;;;;;;;16.35;6.93;;;;;;;7.46;59.59;101160.41;5266235;27;20116;-87
2023/01/24 05:33:15;;;;;;;11.82;6.70;;;;;;;7.48;59.60;101161.28;5267504;27;20096;-89
2023/01/24 05:35:43;;;;;;;14.15;7.45;;;;;;;7.46;59.59;101162.13;5267430;27;20048;-88
2023/01/24 05:38:08;;;;;;;11.85;7.18;;;;;;;7.37;59.59;101162.97;5267900;27;20712;-89
2023/01/24 05:40:34;;;;;;;15.10;7.97;;;;;;;7.53;59.59;101163.88;5267626;27;20108;-88
2023/01/24 05:42:59;;;;;;;14.52;7.68;;;;;;;7.38;59.58;101169.88;5267320;27;20099;-88
2023/01/24 05:45:25;;;;;;;17.67;8.43;;;;;;;7.42;59.59;101166.44;5266796;27;20096;-88
2023/01/24 05:47:50;;;;;;;17.90;7.80;;;;;;;7.45;59.59;101158.69;5267545;27;20061;-88
2023/01/24 05:50:15;;;;;;;18.50;7.25;;;;;;;7.42;59.59;101163.84;5267305;27;20052;-88
2023/01/24 05:52:41;;;;;;;16.58;8.48;;;;;;;7.39;59.58;101164.72;5267634;27;20069;-89
2023/01/24 05:55:07;;;;;;;19.17;7.53;;;;;;;7.41;59.59;101166.44;5267403;27;20062;-89
2023/01/24 05:57:36;;;;;;;16.48;7.20;;;;;;;7.39;59.58;101166.44;5267652;27;20060;-89
2023/01/24 06:00:02;;;;;;;17.75;8.00;;;;;;;7.33;59.59;101168.97;5268022;27;20061;-88
2023/01/24 06:02:28;;;;;;;14.50;8.00;;;;;;;7.41;59.59;101180.25;5266948;27;20713;-88
2023/01/24 06:04:53;;;;;;;14.77;8.23;;;;;;;7.43;59.60;101177.66;5266931;27;20066;-88
2023/01/24 06:07:19;;;;;;;15.95;8.35;;;;;;;7.39;59.60;101182.84;5266490;27;20116;-87
2023/01/24 06:09:44;;;;;;;18.87;8.02;;;;;;;7.33;59.59;101179.34;5266856;27;20135;-88
2023/01/24 06:12:09;;;;;;;13.27;7.55;;;;;;;7.29;59.58;101182.78;5266924;27;20107;-86
2023/01/24 06:14:35;;;;;;;15.50;7.78;;;;;;;7.29;59.59;101186.25;5284735;27;20082;-86
2023/01/24 06:17:10;;;;;;;19.20;6.95;;;;;;;7.19;59.58;101188.78;5265280;27;20429;-85
2023/01/24 06:19:36;;;;;;;12.52;6.75;;;;;;;7.12;59.58;101187.03;5284398;27;20064;-86
2023/01/24 06:22:09;;;;;;;14.18;7.68;;;;;;;7.05;59.57;101194.75;5265645;27;20413;-85
2023/01/24 06:24:35;;;;;;;16.55;8.07;;;;;;;7.14;59.57;101201.72;5267284;27;20061;-87
2023/01/24 06:27:00;;;;;;;15.73;6.85;;;;;;;7.11;59.58;101199.13;5266294;27;20078;-87
2023/01/24 06:29:26;;;;;;;15.25;7.60;;;;;;;7.00;59.56;101204.22;5266669;27;20109;-87
2023/01/24 06:32:16;;;;;;;15.27;7.30;;;;;;;6.98;59.57;101211.12;5266505;27;20181;-85
2023/01/24 06:34:50;;;;;;;14.43;7.25;;;;;;;7.03;59.57;101209.41;5285322;27;20041;-87
2023/01/24 06:37:44;;;;;;;13.77;6.40;;;;;;;7.21;59.58;101202.63;5284892;27;20061;-86
2023/01/24 06:40:10;;;;;;;15.57;6.95;;;;;;;7.04;59.57;101205.09;5285929;27;20060;-87
2023/01/24 06:42:36;;;;;;;12.27;6.90;;;;;;;6.90;59.56;101206.75;5285682;27;20083;-87
2023/01/24 06:45:01;;;;;;;16.70;7.78;;;;;;;7.03;59.57;101208.53;5284905;27;20040;-87
2023/01/24 06:47:27;;;;;;;14.13;7.35;;;;;;;6.93;59.56;101210.22;5284776;27;20117;-87
2023/01/24 06:49:53;;;;;;;17.60;6.37;;;;;;;7.07;59.57;101207.72;5267258;27;20060;-87
2023/01/24 06:52:19;;;;;;;13.88;6.15;;;;;;;6.85;59.56;101214.47;5266575;27;20057;-87
2023/01/24 06:54:44;;;;;;;11.90;6.25;;;;;;;6.87;59.56;101212.78;5284106;27;21137;-87
2023/01/24 06:57:09;;;;;;;18.17;7.00;;;;;;;7.23;59.58;101211.25;5266079;27;20117;-87
2023/01/24 06:59:35;;;;;;;12.48;5.85;;;;;;;7.21;59.58;101211.25;5266491;27;20113;-87
2023/01/24 07:02:00;;;;;;;12.07;6.68;;;;;;;6.93;59.56;101217.13;5285509;27;20070;-87
2023/01/24 07:04:26;;;;;;;12.13;6.12;;;;;;;7.04;59.57;101218.91;5284876;27;20098;-85
2023/01/24 07:06:52;;;;;;;12.23;5.68;;;;;;;7.18;59.59;101216.41;5284606;27;20126;-87
2023/01/24 07:09:19;;;;;;;14.77;6.03;;;;;;;7.15;59.57;101218.12;5267186;27;20422;-87
2023/01/24 07:11:44;;;;;;;11.02;5.70;;;;;;;7.26;59.59;101213.84;5266866;27;20753;-87
2023/01/24 07:14:10;;;;;;;12.25;5.25;;;;;;;7.22;59.58;101220.75;5285397;27;20118;-87
2023/01/24 07:16:35;;;;;;;10.40;5.47;;;;;;;7.24;59.58;101223.34;5266986;27;21704;-87
2023/01/24 07:19:01;;;;;;;13.80;5.55;;;;;;;7.64;59.61;101221.78;5284784;27;20347;-87
2023/01/24 07:21:26;;;;;;;12.90;5.87;;;;;;;7.57;59.60;101220.03;5284811;27;20053;-87
2023/01/24 07:23:52;;;;;;;14.10;6.65;;;;;;;7.44;59.59;101221.72;5266321;27;20178;-86
2023/01/24 07:26:18;;;;;;;9.60;5.62;;;;;;;7.60;59.60;101220.06;5266281;27;20131;-87
2023/01/24 07:28:43;;;;;;;12.75;6.18;;;;;;;7.54;59.60;101217.41;5284599;27;20073;-87
2023/01/24 07:31:10;;;;;;;10.93;5.05;;;;;;;7.85;59.62;101221.00;5266753;27;20127;-87
2023/01/24 07:33:35;;;;;;;11.73;5.78;;;;;;;7.96;59.62;101222.75;5266458;27;20104;-87
2023/01/24 07:36:07;;;;;;;14.02;6.32;;;;;;;7.94;59.63;101221.88;5266650;27;20074;-87
2023/01/24 07:38:33;;;;;;;16.92;7.18;;;;;;;8.14;59.64;101224.50;5267101;27;20064;-87
2023/01/24 07:40:58;;;;;;;18.77;6.85;;;;;;;8.16;59.64;101225.38;5266632;27;20067;-87
2023/01/24 07:43:23;;;;;;;12.90;6.68;;;;;;;8.32;59.64;101231.47;5284435;27;20104;-87
2023/01/24 07:45:49;;;;;;;13.48;7.20;;;;;;;8.48;59.65;101237.53;5266117;27;20112;-87
2023/01/24 07:48:14;;;;;;;12.90;6.70;;;;;;;8.56;59.65;101230.63;5284587;27;20074;-87
2023/01/24 07:50:40;;;;;;;12.55;7.03;;;;;;;8.49;59.65;101236.66;5266618;27;20407;-87
2023/01/24 07:53:05;;;;;;;17.60;7.90;;;;;;;8.45;59.66;101238.41;5302844;27;20103;-87
2023/01/24 07:55:31;;;;;;;16.33;7.45;;;;;;;8.60;59.66;101233.22;5303684;27;20399;-87
2023/01/24 07:58:00;;;;;;;18.52;8.15;;;;;;;8.66;59.66;101241.88;5292050;27;20065;-87
2023/01/24 08:00:25;;;;;;;15.93;8.87;;;;;;;8.98;59.68;101244.41;5303716;27;20021;-87
2023/01/24 08:02:51;;;;;;;14.68;7.82;;;;;;;8.87;59.67;101242.72;5266730;27;20049;-87
2023/01/24 08:05:16;;;;;;;17.33;8.07;;;;;;;8.84;59.67;101247.91;5284932;27;20123;-87
2023/01/24 08:07:42;;;;;;;17.77;8.88;;;;;;;9.12;59.69;101255.66;5266370;27;20080;-87
2023/01/24 08:10:07;;;;;;;17.27;8.95;;;;;;;8.92;59.67;101264.34;5266472;27;20119;-87
2023/01/24 08:12:33;;;;;;;20.20;8.73;;;;;;;8.96;59.67;101264.34;5284311;27;20314;-87
2023/01/24 08:14:58;;;;;;;18.90;8.38;;;;;;;8.90;59.68;101268.69;5266024;27;20112;-87
2023/01/24 08:17:24;;;;;;;19.02;8.93;;;;;;;9.09;59.68;101264.34;5266364;27;20116;-87
2023/01/24 08:19:49;;;;;;;16.65;9.20;;;;;;;9.01;59.68;101262.62;5284372;27;20401;-87
2023/01/24 08:22:14;;;;;;;15.20;8.98;;;;;;;9.09;59.68;101266.06;5266039;27;20072;-87
2023/01/24 08:24:40;;;;;;;21.15;9.57;;;;;;;9.26;59.69;101266.03;5284489;27;20128;-87
2023/01/24 08:27:05;;;;;;;21.60;9.93;;;;;;;9.36;59.70;101263.41;5284331;27;20062;-87
2023/01/24 08:29:31;;;;;;;17.85;8.98;;;;;;;9.61;59.71;101264.19;5285247;27;20096;-87
2023/01/24 08:31:57;;;;;;;19.48;10.25;;;;;;;9.65;59.72;101271.09;5266786;27;20104;-87
2023/01/24 08:34:22;;;;;;;15.95;9.55;;;;;;;9.76;59.72;101271.94;5266938;27;20076;-88
2023/01/24 08:36:48;;;;;;;19.90;9.52;;;;;;;9.94;59.74;101263.19;5284200;27;20104;-87
2023/01/24 08:39:13;;;;;;;20.48;8.85;;;;;;;10.14;59.74;101263.91;5266024;27;20198;-87
2023/01/24 08:41:39;;;;;;;18.20;9.40;;;;;;;10.28;59.75;101260.41;5284337;27;20441;-88
2023/01/24 08:44:04;;;;;;;18.45;8.95;;;;;;;10.31;59.75;101268.19;5266171;27;20076;-87
2023/01/24 08:46:30;;;;;;;20.40;9.32;;;;;;;10.52;59.76;101260.22;5265703;27;20736;-87
2023/01/24 08:48:56;;;;;;;21.10;10.15;;;;;;;10.51;59.76;101266.31;5284563;27;20114;-87
2023/01/24 08:51:21;;;;;;;16.08;9.20;;;;;;;10.73;59.77;101261.78;5265603;27;20382;-87
2023/01/24 08:53:46;;;;;;;15.50;8.95;;;;;;;10.77;59.78;101263.50;5267094;27;20128;-88
2023/01/24 08:56:12;;;;;;;16.95;8.70;;;;;;;10.59;59.76;101263.63;5266552;27;20507;-87
2023/01/24 08:58:37;;;;;;;16.52;8.90;;;;;;;10.84;59.77;101265.16;5266389;27;20049;-87
2023/01/24 09:01:07;;;;;;;18.60;9.32;;;;;;;10.77;59.78;101261.75;5265610;27;20104;-87
2023/01/24 09:03:32;;;;;;;21.67;10.23;;;;;;;10.66;59.76;101263.59;5284634;27;20128;-87
2023/01/24 09:05:58;;;;;;;20.02;9.07;;;;;;;10.86;59.78;101265.13;5283766;27;20049;-87
2023/01/24 09:08:24;;;;;;;18.17;9.25;;;;;;;10.56;59.77;101267.13;5266478;27;20068;-87
2023/01/24 09:10:49;;;;;;;17.20;9.45;;;;;;;10.75;59.77;101273.06;5266493;27;20106;-87
2023/01/24 09:13:14;;;;;;;16.50;8.63;;;;;;;10.55;59.76;101272.34;5266016;27;20366;-87
2023/01/24 09:15:40;;;;;;;18.92;9.40;;;;;;;10.60;59.76;101270.56;5266154;27;20480;-87
2023/01/24 09:18:05;;;;;;;15.70;8.68;;;;;;;10.62;59.76;101274.03;5265629;27;20113;-88
2023/01/24 09:20:31;;;;;;;21.02;9.50;;;;;;;10.88;59.78;101265.97;5283985;27;20396;-87
2023/01/24 09:22:56;;;;;;;16.40;9.23;;;;;;;10.68;59.77;101271.37;5284149;27;20440;-87
2023/01/24 09:25:22;;;;;;;16.70;8.82;;;;;;;10.87;59.78;101269.47;5284142;27;20103;-88
2023/01/24 09:27:54;;;;;;;14.60;8.95;;;;;;;10.98;59.78;101267.66;5265937;27;20091;-87
2023/01/24 09:30:20;;;;;;;14.15;8.57;;;;;;;10.79;59.78;101268.69;5266081;27;20045;-87
2023/01/24 09:32:46;;;;;;;17.40;9.07;;;;;;;10.91;59.78;101266.84;5266263;27;20444;-87
2023/01/24 09:35:11;;;;;;;16.90;9.20;;;;;;;10.99;59.79;101265.03;5267475;27;20132;-87
2023/01/24 09:37:36;;;;;;;18.85;10.20;;;;;;;11.05;59.79;101267.56;5274281;27;20095;-87
2023/01/24 09:40:02;;;;;;;18.52;9.45;;;;;;;11.08;59.80;101269.28;5266603;27;20135;-87
2023/01/24 09:42:36;;;;;;;18.75;9.20;;;;;;;11.00;59.79;101274.56;5266115;27;20490;-87
2023/01/24 09:45:11;;;;;;;19.12;9.55;;;;;;;11.17;59.80;101261.38;5283839;27;20047;-87
2023/01/24 09:47:58;;;;;;;29.45;13.80;;;;;;;10.95;59.79;101262.47;5302335;27;20055;-87
2023/01/24 09:50:35;;;;;;;24.10;10.82;;;;;;;11.00;59.79;101256.31;5284091;27;20045;-87
2023/01/24 09:53:01;;;;;;;20.75;10.02;;;;;;;10.76;59.77;101251.34;5302318;27;20060;-87
2023/01/24 09:55:37;;;;;;;20.77;11.00;;;;;;;11.05;59.79;101256.28;5265684;27;20060;-87
2023/01/24 09:58:04;;;;;;;20.80;10.95;;;;;;;10.75;59.77;101260.03;5284059;27;20056;-88
2023/01/24 10:00:31;;;;;;;20.10;10.95;;;;;;;10.86;59.78;101259.94;5266077;27;20329;-87
2023/01/24 10:02:58;;;;;;;24.95;10.55;;;;;;;10.79;59.78;101253.06;5266026;27;20061;-87
2023/01/24 10:05:40;;;;;;;22.33;10.88;;;;;;;10.89;59.78;101244.28;5266538;27;20441;-87
2023/01/24 10:08:14;;;;;;;19.00;10.15;;;;;;;11.00;59.79;101251.13;5302380;27;20063;-87
2023/01/24 10:10:40;;;;;;;22.25;10.48;;;;;;;11.16;59.80;101237.94;5266589;27;20057;-88
2023/01/24 10:13:24;;;;;;;27.85;11.40;;;;;;;11.04;59.79;101242.38;5301998;27;20064;-87
2023/01/24 10:16:11;;;;;;;19.62;10.63;;;;;;;11.44;59.81;101226.31;5302110;27;20756;-87
2023/01/24 10:19:01;;;;;;;21.08;11.25;;;;;;;11.73;59.83;101232.91;5301994;27;20119;-87
2023/01/24 10:21:39;;;;;;;20.20;10.60;;;;;;;11.61;59.82;101226.97;5302077;27;20064;-88
2023/01/24 10:24:09;;;;;;;23.35;12.07;;;;;;;11.77;59.83;101222.41;5266342;27;20118;-87
2023/01/24 10:26:38;;;;;;;21.62;11.70;;;;;;;11.72;59.83;101224.22;5266267;27;20064;-87
2023/01/24 10:29:16;;;;;;;21.80;10.80;;;;;;;11.80;59.82;101225.00;5266262;27;20032;-87
2023/01/24 10:31:49;;;;;;;23.02;10.63;;;;;;;11.83;59.84;101209.34;5285366;27;20037;-87
2023/01/24 10:34:32;;;;;;;18.80;10.52;;;;;;;11.88;59.84;101212.75;5258929;27;95036;-87
2023/01/24 10:37:06;;;;;;;25.08;11.07;;;;;;;11.83;59.84;101216.28;5266377;27;20075;-87
2023/01/24 10:39:32;;;;;;;19.15;10.02;;;;;;;11.87;59.83;101220.59;5265747;27;20052;-87
2023/01/24 10:41:57;;;;;;;16.98;9.43;;;;;;;12.02;59.85;101222.97;5265474;27;20353;-87
2023/01/24 10:44:27;;;;;;;23.55;10.15;;;;;;;12.08;59.85;101225.50;5283473;27;20361;-88
2023/01/24 10:47:14;;;;;;;18.80;9.73;;;;;;;12.22;59.86;101207.88;5283732;27;20072;-87
2023/01/24 10:49:41;;;;;;;18.95;10.00;;;;;;;12.22;59.86;101220.06;5321685;27;20105;-88
2023/01/24 10:52:07;;;;;;;18.77;8.73;;;;;;;12.05;59.84;101217.69;5266075;27;20071;-87
2023/01/24 10:55:00;;;;;;;18.98;9.90;;;;;;;12.13;59.84;101215.00;5301910;27;20061;-87
2023/01/24 10:57:38;;;;;;;14.57;7.97;;;;;;;12.21;59.86;101211.38;5268192;27;20081;-88
2023/01/24 11:00:17;;;;;;;16.17;8.75;;;;;;;12.21;59.86;101211.38;5283584;27;20049;-89
2023/01/24 11:02:46;;;;;;;14.87;8.52;;;;;;;12.35;59.86;101203.31;5301653;27;20088;-87
2023/01/24 11:05:12;;;;;;;16.60;8.98;;;;;;;12.28;59.85;101196.47;5265510;27;20371;-87
2023/01/24 11:07:39;;;;;;;15.50;8.50;;;;;;;12.28;59.86;101194.72;5265212;27;20479;-88
2023/01/24 11:10:29;;;;;;;12.40;7.12;;;;;;;12.36;59.87;101180.69;5266215;27;20057;-88
2023/01/24 11:12:55;;;;;;;;;;;;;;;12.34;59.86;101183.31;5305454;27;20421;-87
2023/01/24 11:15:31;;;;;;;13.65;7.65;;;;;;;12.39;59.87;101184.09;5293348;27;19944;-88
2023/01/24 11:18:19;;;;;;;17.52;7.65;;;;;;;12.27;59.85;101186.91;5285702;27;20061;-90
2023/01/24 11:20:45;;;;;;;17.27;7.65;;;;;;;12.55;59.87;101177.75;5265852;27;20087;-88
2023/01/24 11:23:14;;;;;;;12.95;7.03;;;;;;;12.35;59.86;101173.75;5265770;27;20422;-87
2023/01/24 11:26:03;;;;;;;17.15;6.25;;;;;;;12.62;59.88;101178.50;5267012;27;20083;-88
2023/01/24 11:28:38;;;;;;;14.52;7.80;;;;;;;12.39;59.86;101173.66;5267482;27;20090;-88
2023/01/24 11:31:28;;;;;;;17.52;8.23;;;;;;;12.72;59.88;101169.59;5284275;27;20118;-87
2023/01/24 11:34:05;;;;;;;;;;;;;;;12.67;59.88;101165.34;5271839;27;20049;-88
2023/01/24 11:36:40;;;;;;;18.85;8.77;;;;;;;12.67;59.89;101158.38;5285138;27;20009;-88
2023/01/24 11:39:36;;;;;;;14.65;8.40;;;;;;;12.55;59.87;101158.59;5322832;27;20382;-87
2023/01/24 11:42:37;;;;;;;23.27;11.38;;;;;;;12.71;59.88;101157.41;5282507;27;20100;-87
2023/01/24 11:45:34;;;;;;;24.15;12.45;;;;;;;12.60;59.88;101159.37;5252183;27;20080;-88
2023/01/24 11:48:06;;;;;;;24.95;12.98;;;;;;;12.24;59.86;101150.41;5284658;27;20061;-87
2023/01/24 11:50:37;;;;;;;25.12;13.38;;;;;;;12.17;59.85;101148.78;5303344;27;20056;-88
2023/01/24 11:53:42;;;;;;;26.40;14.23;;;;;;;12.19;59.85;101144.41;5284537;27;20053;-88
2023/01/24 11:56:10;;;;;;;26.23;13.60;;;;;;;12.27;59.85;101150.34;5176392;27;20082;-87
2023/01/24 11:58:54;;;;;;;29.35;14.25;;;;;;;12.33;59.86;101144.19;5284640;27;20061;-88
2023/01/24 12:01:33;;;;;;;29.45;14.55;;;;;;;12.19;59.85;101142.66;5284469;27;20070;-87
2023/01/24 12:04:26;;;;;;;27.27;14.00;;;;;;;12.17;59.86;101147.03;5266802;27;20060;-87